createdAt,value
2023-03-01T00:01:08.416Z,12.321070234113712
2023-03-01T00:07:42.606Z,12.658862876254181
2023-03-01T00:14:21.641Z,14.842809364548495
2023-03-01T00:20:58.183Z,13.882943143812708
2023-03-01T00:28:44.820Z,12.20401337792642
2023-03-01T00:35:20.047Z,14.023411371237458
2023-03-01T00:41:57.716Z,17.294314381270905
2023-03-01T00:54:33.450Z,14.983277591973245
2023-03-01T01:01:13.098Z,12.020066889632107
2023-03-01T01:07:51.397Z,14.481605351170568
2023-03-01T01:19:03.981Z,13.568561872909699
2023-03-01T01:26:30.160Z,13.551839464882944
2023-03-01T01:33:11.055Z,11.193979933110368
2023-03-01T01:40:48.849Z,13.862876254180602
2023-03-01T01:50:46.282Z,10.725752508361204
2023-03-01T01:59:22.204Z,11.632107023411372
2023-03-01T02:06:01.757Z,13.672240802675585
2023-03-01T02:12:38.611Z,11.976588628762542
2023-03-01T02:19:13.917Z,13.819397993311037
2023-03-01T02:25:58.656Z,13.016722408026755
2023-03-01T02:38:00.567Z,10.153846153846153
2023-03-01T03:00:18.221Z,11.096989966555183
2023-03-01T03:07:00.816Z,14.602006688963211
2023-03-01T03:15:02.906Z,12.294314381270903
2023-03-01T03:27:58.717Z,11.91304347826087
2023-03-01T03:41:18.837Z,15.461538461538462
2023-03-01T03:47:53.698Z,14.501672240802675
2023-03-01T03:55:52.008Z,19.68561872909699
2023-03-01T04:02:25.103Z,22.869565217391305
2023-03-01T04:18:29.220Z,20.74247491638796
2023-03-01T04:25:08.462Z,22.608695652173914
2023-03-01T04:31:48.519Z,17.839464882943144
2023-03-01T04:38:22.306Z,18.31438127090301
2023-03-01T04:52:42.891Z,18.93645484949833
2023-03-01T04:59:22.701Z,20.561872909698998
2023-03-01T05:06:18.323Z,18.040133779264213
2023-03-01T05:15:28.884Z,15.692307692307692
2023-03-01T05:24:47.828Z,21.525083612040135
2023-03-01T05:31:37.588Z,20.267558528428093
2023-03-01T05:41:40.156Z,17.444816053511705
2023-03-01T05:50:23.722Z,18.153846153846153
2023-03-01T06:02:12.294Z,18.555183946488295
2023-03-01T06:09:12.607Z,16.892976588628763
2023-03-01T06:17:30.482Z,17.240802675585286
2023-03-01T06:26:34.201Z,21.010033444816052
2023-03-01T06:40:25.175Z,20.123745819397993
2023-03-01T06:47:06.960Z,16.023411371237458
2023-03-01T06:54:38.718Z,15.906354515050166
2023-03-01T07:06:44.052Z,18.909698996655518
2023-03-01T07:13:22.889Z,16.558528428093645
2023-03-01T07:23:14.084Z,21.585284280936456
2023-03-01T07:34:19.302Z,21.137123745819398
2023-03-01T07:40:58.771Z,21.193979933110366
2023-03-01T07:55:20.089Z,18.347826086956523
2023-03-01T08:01:58.203Z,17.301003344481604
2023-03-01T08:08:36.756Z,17.294314381270905
2023-03-01T08:15:15.175Z,16.05016722408027
2023-03-01T08:21:57.455Z,17.130434782608695
2023-03-01T08:36:43.418Z,14.635451505016722
2023-03-01T08:44:33.040Z,16.983277591973245
2023-03-01T08:51:06.019Z,16.68561872909699
2023-03-01T08:57:40.122Z,15.816053511705686
2023-03-01T09:19:25.703Z,19.959866220735787
2023-03-01T09:26:16.378Z,13.732441471571907
2023-03-01T09:32:52.012Z,8.076923076923077
2023-03-01T09:39:29.524Z,3.1839464882943145
2023-03-01T09:47:23.868Z,4.053511705685619
2023-03-01T09:53:58.869Z,4.662207357859532
2023-03-01T10:00:34.469Z,5.688963210702341
2023-03-01T10:07:13.688Z,4.357859531772576
2023-03-01T10:13:55.786Z,3.588628762541806
2023-03-01T10:20:39.216Z,3.531772575250836
2023-03-01T10:27:18.112Z,2.1270903010033444
2023-03-01T10:33:54.494Z,2.7959866220735785
2023-03-01T10:40:35.011Z,2.197324414715719
2023-03-01T10:47:10.966Z,4.374581939799331
2023-03-01T10:53:49.608Z,5.301003344481606
2023-03-01T11:00:30.070Z,4.923076923076923
2023-03-01T11:07:17.028Z,6.906354515050167
2023-03-01T11:30:46.601Z,7.107023411371237
2023-03-01T11:43:08.120Z,6.892976588628763
2023-03-01T11:50:12.856Z,5.2207357859531776
2023-03-01T12:04:44.229Z,6.37123745819398
2023-03-01T12:11:28.915Z,6.705685618729097
2023-03-01T12:23:35.372Z,6.826086956521739
2023-03-01T12:30:15.644Z,7.25752508361204
2023-03-01T12:36:57.684Z,6.026755852842809
2023-03-01T12:43:32.680Z,4.414715719063545
2023-03-01T12:50:11.386Z,5.919732441471572
2023-03-01T12:56:42.860Z,5.892976588628763
2023-03-01T13:06:27.572Z,4.919732441471572
2023-03-01T13:19:05.784Z,6.698996655518394
2023-03-01T13:25:42.475Z,4.8361204013377925
2023-03-01T13:36:34.162Z,5.953177257525083
2023-03-01T13:43:07.304Z,6.418060200668896
2023-03-01T13:56:38.786Z,5.852842809364549
2023-03-01T14:03:15.946Z,4.765886287625418
2023-03-01T14:14:06.434Z,4.270903010033445
2023-03-01T14:21:01.846Z,5.2040133779264215
2023-03-01T14:27:45.991Z,6.294314381270903
2023-03-01T14:40:50.617Z,5.68561872909699
2023-03-01T14:50:36.401Z,7.698996655518394
2023-03-01T14:57:07.809Z,6.672240802675585
2023-03-01T15:03:40.776Z,7.277591973244147
2023-03-01T15:10:41.641Z,8.043478260869565
2023-03-01T15:17:12.719Z,7.240802675585284
2023-03-01T15:26:09.767Z,6.1638795986622075
2023-03-01T15:33:38.325Z,9.150501672240802
2023-03-01T15:47:36.437Z,14.929765886287626
2023-03-01T15:58:16.794Z,13.016722408026755
2023-03-01T16:04:48.145Z,14.695652173913043
2023-03-01T16:11:20.744Z,10.016722408026755
2023-03-01T16:27:26.463Z,11.290969899665551
2023-03-01T16:33:56.535Z,11.11371237458194
2023-03-01T16:40:28.197Z,10.046822742474916
2023-03-01T16:47:08.836Z,14.060200668896321
2023-03-01T17:10:07.438Z,14.80267558528428
2023-03-01T17:16:29.078Z,12.785953177257525
2023-03-01T17:26:30.185Z,13.498327759197325
2023-03-01T17:39:54.440Z,14.702341137123746
2023-03-01T17:49:31.653Z,16.789297658862875
2023-03-01T17:55:57.920Z,18.13377926421405
2023-03-01T18:02:19.953Z,17.06020066889632
2023-03-01T18:08:41.688Z,20.0
2023-03-01T18:15:03.697Z,20.68896321070234
2023-03-01T18:21:25.446Z,21.073578595317727
2023-03-01T18:27:47.352Z,19.68896321070234
2023-03-01T18:34:10.246Z,24.49163879598662
2023-03-01T18:40:32.815Z,17.39799331103679
2023-03-01T18:52:27.849Z,20.615384615384617
2023-03-01T18:58:49.374Z,20.187290969899667
2023-03-01T19:05:20.053Z,19.879598662207357
2023-03-01T19:18:07.452Z,18.384615384615383
2023-03-01T19:24:33.070Z,21.91304347826087
2023-03-01T19:34:12.067Z,26.137123745819398
2023-03-01T20:01:46.965Z,32.68227424749164
2023-03-01T20:11:14.556Z,37.96989966555184
2023-03-01T20:21:58.685Z,29.862876254180602
2023-03-01T20:28:28.518Z,23.929765886287626
2023-03-01T20:34:54.575Z,22.789297658862875
2023-03-01T20:46:48.577Z,29.692307692307693
2023-03-01T20:53:12.459Z,17.1438127090301
2023-03-01T20:59:38.609Z,17.63545150501672
2023-03-01T21:15:29.427Z,15.167224080267559
2023-03-01T21:21:52.250Z,18.137123745819398
2023-03-01T21:28:17.316Z,16.548494983277592
2023-03-01T21:39:03.338Z,17.795986622073578
2023-03-01T21:50:05.189Z,15.521739130434783
2023-03-01T21:56:54.920Z,16.809364548494983
2023-03-01T22:03:18.026Z,15.511705685618729
2023-03-01T22:09:44.017Z,16.94314381270903
2023-03-01T22:23:40.781Z,12.933110367892976
2023-03-01T22:30:05.394Z,12.22742474916388
2023-03-01T22:40:50.244Z,13.501672240802675
2023-03-01T22:47:12.892Z,12.963210702341136
2023-03-01T22:59:28.822Z,14.384615384615385
2023-03-01T23:19:18.107Z,15.698996655518394
2023-03-01T23:25:44.134Z,14.698996655518394
2023-03-01T23:32:08.462Z,18.294314381270905
2023-03-01T23:59:44.058Z,19.351170568561873
